createdAt,value
2019-05-01T00:02:47.831Z,9.44
2019-05-01T00:05:26.094Z,9.37
2019-05-01T00:07:56.802Z,9.41
2019-05-01T00:10:28.783Z,9.41
2019-05-01T00:12:59.457Z,9.41
2019-05-01T00:15:32.488Z,9.44
2019-05-01T00:18:02.817Z,9.36
2019-05-01T00:20:33.534Z,9.35
2019-05-01T00:23:03.819Z,9.37
2019-05-01T00:25:34.551Z,9.35
2019-05-01T00:28:05.030Z,9.33
2019-05-01T00:30:36.061Z,9.19
2019-05-01T00:33:06.523Z,9.14
2019-05-01T00:35:36.728Z,9.08
2019-05-01T00:38:06.993Z,9.10
2019-05-01T00:40:37.640Z,9.05
2019-05-01T00:43:07.935Z,9.02
2019-05-01T00:45:38.282Z,9.02
2019-05-01T00:48:08.581Z,8.98
2019-05-01T00:50:38.913Z,8.95
2019-05-01T00:53:09.565Z,8.89
2019-05-01T00:55:50.242Z,8.89
2019-05-01T00:58:34.233Z,8.88
2019-05-01T01:01:21.538Z,8.92
2019-05-01T01:03:52.312Z,8.84
2019-05-01T01:06:22.694Z,8.81
2019-05-01T01:08:53.006Z,8.79
2019-05-01T01:11:23.592Z,8.83
2019-05-01T01:13:54.027Z,8.81
2019-05-01T01:16:24.320Z,8.81
2019-05-01T01:18:55.045Z,8.78
2019-05-01T01:21:25.743Z,8.75
2019-05-01T01:23:56.920Z,8.74
2019-05-01T01:26:28.002Z,8.72
2019-05-01T01:28:58.324Z,8.72
2019-05-01T01:31:28.703Z,8.67
2019-05-01T01:34:31.932Z,8.61
2019-05-01T01:37:02.705Z,8.59
2019-05-01T01:39:33.158Z,8.59
2019-05-01T01:42:03.947Z,8.61
2019-05-01T01:45:02.485Z,8.59
2019-05-01T01:47:33.156Z,8.67
2019-05-01T01:50:03.508Z,8.68
2019-05-01T01:52:34.152Z,8.72
2019-05-01T01:55:04.666Z,8.64
2019-05-01T01:57:35.101Z,8.61
2019-05-01T02:00:07.943Z,8.61
2019-05-01T02:02:49.976Z,8.56
2019-05-01T02:05:24.200Z,8.47
2019-05-01T02:07:54.679Z,8.47
2019-05-01T02:10:25.216Z,8.42
2019-05-01T02:12:55.611Z,8.35
2019-05-01T02:15:25.969Z,8.37
2019-05-01T02:17:56.631Z,8.31
2019-05-01T02:20:27.036Z,8.31
2019-05-01T02:22:57.700Z,8.25
2019-05-01T02:25:29.483Z,8.20
2019-05-01T02:28:33.597Z,8.18
2019-05-01T02:31:29.285Z,8.13
2019-05-01T02:33:57.464Z,8.14
2019-05-01T02:36:29.859Z,8.16
2019-05-01T02:39:01.675Z,8.11
2019-05-01T02:41:36.182Z,8.08
2019-05-01T02:44:34.590Z,8.01
2019-05-01T02:47:09.204Z,7.95
2019-05-01T02:49:52.169Z,7.85
2019-05-01T02:52:26.666Z,7.81
2019-05-01T02:55:02.431Z,7.67
2019-05-01T02:57:34.754Z,7.60
2019-05-01T03:00:06.547Z,7.52
2019-05-01T03:02:39.051Z,7.46
2019-05-01T03:05:10.288Z,7.39
2019-05-01T03:07:42.095Z,7.33
2019-05-01T03:10:13.056Z,7.29
2019-05-01T03:12:46.045Z,7.26
2019-05-01T03:15:17.197Z,7.22
2019-05-01T03:18:10.365Z,7.21
2019-05-01T03:20:56.351Z,7.25
2019-05-01T03:23:51.944Z,7.13
2019-05-01T03:26:22.956Z,7.08
2019-05-01T03:28:53.468Z,7.07
2019-05-01T03:31:23.948Z,6.97
2019-05-01T03:33:54.829Z,6.93
2019-05-01T03:36:25.521Z,6.85
2019-05-01T03:38:56.070Z,6.84
2019-05-01T03:41:26.645Z,6.81
2019-05-01T03:43:57.791Z,6.73
2019-05-01T03:46:28.347Z,6.71
2019-05-01T03:48:58.753Z,6.69
2019-05-01T03:51:29.328Z,6.64
2019-05-01T03:53:59.888Z,6.69
2019-05-01T03:56:31.084Z,6.71
2019-05-01T03:59:01.879Z,6.75
2019-05-01T04:02:00.478Z,6.82
2019-05-01T04:04:31.916Z,6.91
2019-05-01T04:07:02.757Z,6.78
2019-05-01T04:09:33.172Z,6.70
2019-05-01T04:12:04.583Z,6.81
2019-05-01T04:14:38.921Z,6.77
2019-05-01T04:17:32.332Z,6.79
2019-05-01T04:20:03.412Z,6.89
2019-05-01T04:22:34.400Z,7.00
2019-05-01T04:25:06.296Z,7.02
2019-05-01T04:27:39.465Z,7.03
2019-05-01T04:30:20.287Z,7.04
2019-05-01T04:32:54.340Z,7.04
2019-05-01T04:35:43.810Z,7.05
2019-05-01T04:38:14.510Z,7.03
2019-05-01T04:40:45.868Z,7.08
2019-05-01T04:43:16.214Z,7.11
2019-05-01T04:45:46.980Z,7.16
2019-05-01T04:48:17.358Z,7.23
2019-05-01T04:50:48.076Z,7.28
2019-05-01T04:53:19.547Z,7.35
2019-05-01T04:55:50.550Z,7.38
2019-05-01T04:58:20.839Z,7.48
2019-05-01T05:00:51.812Z,7.55
2019-05-01T05:03:24.574Z,7.83
2019-05-01T05:05:55.062Z,7.86
2019-05-01T05:08:25.667Z,8.02
2019-05-01T05:10:58.943Z,8.09
2019-05-01T05:13:35.299Z,8.12
2019-05-01T05:16:16.097Z,8.30
2019-05-01T05:18:46.764Z,8.13
2019-05-01T05:21:17.558Z,8.36
2019-05-01T05:23:48.129Z,8.41
2019-05-01T05:26:19.653Z,8.43
2019-05-01T05:28:51.922Z,8.33
2019-05-01T05:31:24.898Z,8.53
2019-05-01T05:33:57.797Z,8.48
2019-05-01T05:36:29.765Z,8.92
2019-05-01T05:39:09.261Z,9.20
2019-05-01T05:41:40.130Z,9.32
2019-05-01T05:44:10.564Z,9.16
2019-05-01T05:46:42.032Z,9.09
2019-05-01T05:49:12.916Z,9.32
2019-05-01T05:51:52.040Z,9.39
2019-05-01T05:54:41.992Z,9.83
2019-05-01T05:57:20.532Z,9.64
2019-05-01T05:59:55.873Z,9.06
2019-05-01T06:02:42.162Z,9.48
2019-05-01T06:05:22.630Z,9.32
2019-05-01T06:08:11.570Z,9.52
2019-05-01T06:10:58.580Z,9.79
2019-05-01T06:13:47.709Z,9.38
2019-05-01T06:16:34.805Z,9.39
2019-05-01T06:19:19.257Z,10.09
2019-05-01T06:22:10.113Z,10.35
2019-05-01T06:24:45.065Z,9.94
2019-05-01T06:27:16.451Z,10.23
2019-05-01T06:29:50.436Z,10.99
2019-05-01T06:32:20.875Z,11.19
2019-05-01T06:34:51.964Z,11.53
2019-05-01T06:37:25.336Z,11.75
2019-05-01T06:39:55.168Z,11.68
2019-05-01T06:42:26.003Z,11.92
2019-05-01T06:45:02.672Z,12.62
2019-05-01T06:47:48.446Z,12.59
2019-05-01T06:50:36.977Z,12.58
2019-05-01T06:53:07.556Z,13.35
2019-05-01T06:55:39.317Z,13.55
2019-05-01T06:58:09.712Z,13.94
2019-05-01T07:00:43.023Z,13.46
2019-05-01T07:03:14.566Z,13.52
2019-05-01T07:05:48.983Z,13.88
2019-05-01T07:10:50.277Z,14.17
2019-05-01T07:13:21.095Z,14.33
2019-05-01T07:15:51.484Z,14.64
2019-05-01T07:18:23.721Z,14.63
2019-05-01T07:20:54.426Z,14.44
2019-05-01T07:23:25.560Z,14.79
2019-05-01T07:25:58.688Z,15.40
2019-05-01T07:28:34.184Z,15.83
2019-05-01T07:31:06.319Z,15.64
2019-05-01T07:33:36.921Z,15.78
2019-05-01T07:36:14.998Z,16.15
2019-05-01T07:38:40.568Z,16.56
2019-05-01T07:41:12.492Z,16.23
2019-05-01T07:43:54.911Z,16.44
2019-05-01T07:46:48.912Z,16.55
2019-05-01T07:49:17.638Z,17.41
2019-05-01T07:51:53.432Z,17.32
2019-05-01T07:54:24.356Z,17.81
2019-05-01T07:56:58.749Z,17.91
2019-05-01T07:59:28.651Z,18.12
2019-05-01T08:02:02.625Z,18.31
2019-05-01T08:04:36.632Z,17.78
2019-05-01T08:07:05.814Z,17.22
2019-05-01T08:09:36.499Z,17.76
2019-05-01T08:12:07.356Z,16.70
2019-05-01T08:14:38.070Z,17.31
2019-05-01T08:17:12.912Z,17.16
2019-05-01T08:19:52.356Z,18.38
2019-05-01T08:22:25.255Z,18.35
2019-05-01T08:24:58.818Z,18.38
2019-05-01T08:27:40.174Z,18.07
2019-05-01T08:30:32.007Z,18.53
2019-05-01T08:33:14.557Z,17.54
2019-05-01T08:35:45.532Z,18.07
2019-05-01T08:38:15.916Z,17.74
2019-05-01T08:40:46.355Z,17.11
2019-05-01T08:43:18.116Z,17.54
2019-05-01T08:46:11.896Z,17.80
2019-05-01T08:49:15.547Z,18.20
2019-05-01T08:51:46.333Z,17.72
2019-05-01T08:54:16.800Z,18.26
2019-05-01T08:56:47.253Z,17.34
2019-05-01T08:59:19.446Z,16.92
2019-05-01T09:02:00.880Z,18.16
2019-05-01T09:04:25.213Z,17.97
2019-05-01T09:06:54.405Z,19.21
2019-05-01T09:09:24.916Z,18.46
2019-05-01T09:11:56.037Z,18.64
2019-05-01T09:14:29.942Z,18.36
2019-05-01T09:16:59.477Z,17.97
2019-05-01T09:19:29.917Z,18.38
2019-05-01T09:22:00.391Z,18.62
2019-05-01T09:24:31.339Z,18.73
2019-05-01T09:27:12.344Z,19.09
2019-05-01T09:29:46.799Z,19.87
2019-05-01T09:32:18.787Z,18.88
2019-05-01T09:34:49.676Z,20.19
2019-05-01T09:37:20.181Z,18.90
2019-05-01T09:39:50.831Z,20.47
2019-05-01T09:42:23.716Z,21.11
2019-05-01T09:44:54.092Z,21.22
2019-05-01T09:47:25.694Z,19.67
2019-05-01T09:49:56.942Z,20.98
2019-05-01T09:52:46.240Z,21.09
2019-05-01T09:55:47.653Z,22.11
2019-05-01T09:58:18.058Z,22.40
2019-05-01T10:00:52.751Z,23.14
2019-05-01T10:03:23.376Z,22.83
2019-05-01T10:05:54.026Z,22.86
2019-05-01T10:08:24.729Z,22.06
2019-05-01T10:10:55.191Z,21.50
2019-05-01T10:13:25.757Z,23.26
2019-05-01T10:15:56.425Z,22.07
2019-05-01T10:18:27.297Z,23.97
2019-05-01T10:20:58.359Z,25.30
2019-05-01T10:23:29.062Z,25.76
2019-05-01T10:26:01.110Z,25.42
2019-05-01T10:28:37.814Z,25.42
2019-05-01T10:31:21.113Z,26.56
2019-05-01T10:33:52.350Z,26.30
2019-05-01T10:36:35.911Z,25.25
2019-05-01T10:39:08.606Z,23.80
2019-05-01T10:41:41.086Z,24.71
2019-05-01T10:44:11.759Z,26.16
2019-05-01T10:46:42.233Z,25.39
2019-05-01T10:49:12.674Z,24.38
2019-05-01T10:51:43.263Z,23.86
2019-05-01T10:54:14.032Z,25.78
2019-05-01T10:56:44.372Z,26.01
2019-05-01T10:59:14.810Z,25.48
2019-05-01T11:01:51.982Z,26.08
2019-05-01T11:04:22.417Z,25.89
2019-05-01T11:06:52.825Z,24.64
2019-05-01T11:09:23.193Z,25.20
2019-05-01T11:11:53.971Z,24.04
2019-05-01T11:14:24.350Z,24.10
2019-05-01T11:16:54.797Z,23.41
2019-05-01T11:19:25.780Z,22.75
2019-05-01T11:21:56.516Z,22.48
2019-05-01T11:24:26.956Z,22.38
2019-05-01T11:26:57.305Z,22.59
2019-05-01T11:29:29.583Z,22.41
2019-05-01T11:32:16.908Z,22.16
2019-05-01T11:35:21.659Z,21.41
2019-05-01T11:38:07.829Z,22.12
2019-05-01T11:40:40.745Z,21.53
2019-05-01T11:43:11.191Z,21.71
2019-05-01T11:45:41.649Z,21.20
2019-05-01T11:48:12.292Z,21.66
2019-05-01T11:50:42.702Z,22.20
2019-05-01T11:53:13.124Z,21.99
2019-05-01T11:55:44.327Z,21.66
2019-05-01T11:58:15.193Z,22.01
2019-05-01T12:03:12.114Z,22.76
2019-05-01T12:05:42.439Z,22.73
2019-05-01T12:08:12.802Z,22.60
2019-05-01T12:10:43.199Z,22.68
2019-05-01T12:13:13.462Z,22.64
2019-05-01T12:15:45.519Z,22.56
2019-05-01T12:18:15.923Z,22.61
2019-05-01T12:20:46.356Z,22.32
2019-05-01T12:23:16.731Z,22.50
2019-05-01T12:25:47.028Z,22.59
2019-05-01T12:28:17.401Z,22.51
2019-05-01T12:30:48.006Z,22.63
2019-05-01T12:42:19.590Z,28.28
2019-05-01T12:44:51.910Z,26.35
2019-05-01T12:47:50.242Z,25.84
2019-05-01T12:50:25.846Z,25.82
2019-05-01T12:53:18.932Z,22.91
2019-05-01T12:56:16.410Z,24.56
2019-05-01T12:58:51.241Z,24.48
2019-05-01T13:01:31.770Z,24.61
2019-05-01T13:04:08.898Z,24.68
2019-05-01T13:15:51.575Z,23.58
2019-05-01T13:18:22.138Z,24.18
2019-05-01T13:20:52.660Z,24.10
2019-05-01T13:23:25.367Z,24.62
2019-05-01T13:25:59.138Z,25.69
2019-05-01T13:28:54.617Z,25.95
2019-05-01T13:31:53.003Z,24.24
2019-05-01T13:34:23.582Z,24.06
2019-05-01T13:37:02.897Z,23.30
2019-05-01T13:39:27.300Z,24.18
2019-05-01T13:41:57.852Z,25.81
2019-05-01T13:44:30.974Z,22.93
2019-05-01T13:47:01.642Z,24.31
2019-05-01T13:49:32.169Z,24.43
2019-05-01T13:52:02.803Z,25.52
2019-05-01T13:54:33.222Z,25.30
2019-05-01T13:57:03.680Z,24.83
2019-05-01T13:59:34.288Z,23.77
2019-05-01T14:02:04.840Z,23.37
2019-05-01T14:04:36.137Z,24.11
2019-05-01T14:07:16.345Z,23.87
2019-05-01T14:09:39.441Z,23.16
2019-05-01T14:12:10.170Z,24.52
2019-05-01T14:15:29.846Z,23.90
2019-05-01T14:18:00.429Z,24.42
2019-05-01T14:20:48.614Z,23.94
2019-05-01T14:23:36.744Z,24.00
2019-05-01T14:26:13.157Z,23.73
2019-05-01T14:28:43.885Z,24.23
2019-05-01T14:31:14.445Z,25.50
2019-05-01T14:33:44.930Z,24.45
2019-05-01T14:36:15.738Z,24.30
2019-05-01T14:38:46.323Z,24.53
2019-05-01T14:41:16.894Z,24.39
2019-05-01T14:43:49.515Z,24.56
2019-05-01T14:46:20.216Z,23.85
2019-05-01T14:48:50.803Z,24.11
2019-05-01T14:51:21.950Z,24.39
2019-05-01T14:53:52.713Z,23.42
2019-05-01T14:56:23.296Z,24.26
2019-05-01T14:58:53.967Z,23.73
2019-05-01T15:01:24.484Z,24.66
2019-05-01T15:03:55.096Z,24.68
2019-05-01T15:06:25.947Z,24.26
2019-05-01T15:08:58.525Z,24.95
2019-05-01T15:11:29.464Z,25.16
2019-05-01T15:14:06.526Z,24.30
2019-05-01T15:16:48.820Z,23.93
2019-05-01T15:19:21.920Z,23.61
2019-05-01T15:21:52.956Z,24.75
2019-05-01T15:24:23.755Z,25.20
2019-05-01T15:26:54.274Z,24.93
2019-05-01T15:29:24.782Z,25.30
2019-05-01T15:31:55.407Z,25.85
2019-05-01T15:34:25.850Z,24.44
2019-05-01T15:36:56.546Z,23.22
2019-05-01T15:39:40.972Z,22.76
2019-05-01T15:42:29.191Z,22.88
2019-05-01T15:44:59.753Z,22.48
2019-05-01T15:47:37.675Z,23.49
2019-05-01T15:50:11.205Z,22.25
2019-05-01T15:52:40.655Z,24.49
2019-05-01T15:55:11.359Z,24.21
2019-05-01T15:57:42.021Z,23.85
2019-05-01T16:00:17.106Z,24.20
2019-05-01T16:02:47.971Z,25.00
2019-05-01T16:05:18.559Z,23.99
2019-05-01T16:07:49.067Z,24.65
2019-05-01T16:10:23.582Z,23.57
2019-05-01T16:12:58.579Z,23.66
2019-05-01T16:15:33.838Z,24.03
2019-05-01T16:18:05.373Z,25.06
2019-05-01T16:21:09.515Z,24.67
2019-05-01T16:23:50.958Z,24.24
2019-05-01T16:26:21.749Z,25.05
2019-05-01T16:28:52.561Z,25.19
2019-05-01T16:31:23.121Z,24.58
2019-05-01T16:33:53.653Z,25.84
2019-05-01T16:36:24.334Z,23.22
2019-05-01T16:39:07.619Z,23.64
2019-05-01T16:41:38.202Z,22.51
2019-05-01T16:46:38.228Z,21.72
2019-05-01T16:49:09.116Z,21.36
2019-05-01T16:51:41.572Z,21.44
2019-05-01T16:54:11.977Z,21.20
2019-05-01T16:56:51.060Z,20.60
2019-05-01T16:59:22.824Z,20.82
2019-05-01T17:02:04.085Z,20.76
2019-05-01T17:04:52.950Z,20.56
2019-05-01T17:07:30.456Z,20.53
2019-05-01T17:10:25.777Z,20.62
2019-05-01T17:12:56.689Z,20.59
2019-05-01T17:15:34.824Z,20.90
2019-05-01T17:18:05.427Z,20.72
2019-05-01T17:20:36.066Z,20.63
2019-05-01T17:23:06.784Z,20.83
2019-05-01T17:25:37.630Z,20.63
2019-05-01T17:28:09.443Z,20.62
2019-05-01T17:30:50.951Z,20.46
2019-05-01T17:33:23.905Z,20.24
2019-05-01T17:35:54.382Z,20.40
2019-05-01T17:38:25.904Z,20.62
2019-05-01T17:40:56.476Z,21.00
2019-05-01T17:43:29.671Z,21.72
2019-05-01T17:46:05.969Z,21.64
2019-05-01T17:48:34.917Z,20.70
2019-05-01T17:51:05.577Z,21.51
2019-05-01T17:53:36.259Z,21.20
2019-05-01T17:56:14.718Z,21.65
2019-05-01T17:58:42.986Z,20.89
2019-05-01T18:01:33.062Z,20.40
2019-05-01T18:04:19.665Z,20.08
2019-05-01T18:06:51.920Z,20.01
2019-05-01T18:09:22.471Z,19.43
2019-05-01T18:11:53.728Z,19.57
2019-05-01T18:14:24.428Z,19.67
2019-05-01T18:16:54.889Z,19.49
2019-05-01T18:19:25.719Z,19.25
2019-05-01T18:22:09.649Z,19.04
2019-05-01T18:25:09.157Z,18.73
2019-05-01T18:28:03.244Z,18.71
2019-05-01T18:30:39.484Z,18.44
2019-05-01T18:33:10.737Z,18.32
2019-05-01T18:35:44.895Z,18.14
2019-05-01T18:38:32.144Z,17.98
2019-05-01T18:41:18.212Z,17.88
2019-05-01T18:43:48.894Z,17.80
2019-05-01T18:46:19.875Z,17.48
2019-05-01T18:48:50.671Z,17.45
2019-05-01T18:51:21.662Z,17.33
2019-05-01T18:54:02.705Z,17.22
2019-05-01T18:56:41.435Z,16.82
2019-05-01T18:59:12.217Z,16.69
2019-05-01T19:01:48.527Z,16.38
2019-05-01T19:04:18.352Z,16.29
2019-05-01T19:06:49.980Z,16.06
2019-05-01T19:09:29.766Z,16.10
2019-05-01T19:11:57.543Z,16.13
2019-05-01T19:14:30.649Z,16.07
2019-05-01T19:17:01.253Z,16.18
2019-05-01T19:19:35.240Z,16.25
2019-05-01T19:22:09.648Z,16.15
2019-05-01T19:24:40.304Z,16.37
2019-05-01T19:27:14.258Z,16.92
2019-05-01T19:29:52.958Z,16.73
2019-05-01T19:32:24.330Z,16.38
2019-05-01T19:34:55.071Z,16.49
2019-05-01T19:37:28.208Z,16.45
2019-05-01T19:39:58.382Z,16.28
2019-05-01T19:42:29.114Z,15.81
2019-05-01T19:44:59.962Z,16.02
2019-05-01T19:47:30.997Z,15.74
2019-05-01T19:50:07.508Z,15.15
2019-05-01T19:52:40.446Z,14.98
2019-05-01T19:55:11.444Z,14.69
2019-05-01T19:57:42.121Z,14.56
2019-05-01T20:00:13.677Z,14.67
2019-05-01T20:02:44.453Z,14.81
2019-05-01T20:05:15.074Z,14.68
2019-05-01T20:07:45.910Z,15.30
2019-05-01T20:10:18.331Z,15.33
2019-05-01T20:12:48.785Z,15.07
2019-05-01T20:15:24.487Z,15.12
2019-05-01T20:17:52.332Z,14.66
2019-05-01T20:20:22.877Z,14.64
2019-05-01T20:22:55.329Z,14.65
2019-05-01T20:25:25.680Z,14.80
2019-05-01T20:27:57.357Z,14.77
2019-05-01T20:30:28.047Z,14.82
2019-05-01T20:33:02.262Z,14.78
2019-05-01T20:35:34.144Z,14.84
2019-05-01T20:38:03.467Z,14.82
2019-05-01T20:40:34.352Z,14.72
2019-05-01T20:43:15.778Z,14.55
2019-05-01T20:45:57.944Z,14.61
2019-05-01T20:48:28.491Z,14.31
2019-05-01T20:51:05.145Z,14.04
2019-05-01T20:53:35.962Z,13.85
2019-05-01T20:56:14.098Z,13.84
2019-05-01T20:58:45.510Z,13.64
2019-05-01T21:01:17.481Z,13.51
2019-05-01T21:04:13.464Z,13.55
2019-05-01T21:06:47.235Z,13.51
2019-05-01T21:09:21.255Z,13.38
2019-05-01T21:12:05.116Z,12.97
2019-05-01T21:14:28.823Z,13.16
2019-05-01T21:16:59.822Z,13.17
2019-05-01T21:19:33.002Z,12.83
2019-05-01T21:22:04.034Z,13.03
2019-05-01T21:24:35.650Z,12.99
2019-05-01T21:27:06.580Z,12.84
2019-05-01T21:29:37.525Z,12.93
2019-05-01T21:32:08.517Z,12.71
2019-05-01T21:34:38.999Z,12.60
2019-05-01T21:37:09.738Z,12.79
2019-05-01T21:39:49.404Z,12.83
2019-05-01T21:42:19.892Z,13.06
2019-05-01T21:44:50.356Z,13.10
2019-05-01T21:47:23.524Z,13.26
2019-05-01T21:49:53.598Z,13.33
2019-05-01T21:52:26.845Z,13.31
2019-05-01T21:54:57.332Z,13.04
2019-05-01T21:57:32.269Z,11.99
2019-05-01T22:00:00.381Z,11.76
2019-05-01T22:02:31.298Z,11.80
2019-05-01T22:05:03.747Z,12.20
2019-05-01T22:07:34.074Z,12.18
2019-05-01T22:10:04.687Z,12.06
2019-05-01T22:12:35.332Z,12.34
2019-05-01T22:15:18.882Z,12.40
2019-05-01T22:18:20.349Z,12.31
2019-05-01T22:20:59.841Z,12.42
2019-05-01T22:23:32.309Z,12.67
2019-05-01T22:26:03.107Z,12.72
2019-05-01T22:28:50.124Z,12.72
2019-05-01T22:31:41.631Z,13.43
2019-05-01T22:34:27.707Z,13.24
2019-05-01T22:36:58.500Z,12.98
2019-05-01T22:39:30.901Z,12.25
2019-05-01T22:42:01.298Z,12.13
2019-05-01T22:44:32.167Z,11.88
2019-05-01T22:47:02.696Z,11.87
2019-05-01T22:49:33.177Z,12.25
2019-05-01T22:52:04.202Z,11.79
2019-05-01T22:54:37.722Z,11.82
2019-05-01T22:57:13.973Z,11.74
2019-05-01T22:59:44.509Z,11.60
2019-05-01T23:02:24.151Z,11.74
2019-05-01T23:04:56.099Z,11.70
2019-05-01T23:07:27.282Z,11.82
2019-05-01T23:09:59.264Z,11.90
2019-05-01T23:12:30.207Z,12.25
2019-05-01T23:15:00.625Z,12.37
2019-05-01T23:17:39.589Z,12.24
2019-05-01T23:20:10.122Z,12.13
2019-05-01T23:22:40.603Z,12.01
2019-05-01T23:25:11.449Z,11.90
2019-05-01T23:27:42.104Z,11.65
2019-05-01T23:30:15.728Z,11.45
2019-05-01T23:32:47.319Z,11.28
2019-05-01T23:35:17.771Z,11.05
2019-05-01T23:37:48.205Z,10.86
2019-05-01T23:40:19.170Z,10.83
2019-05-01T23:42:52.820Z,10.91
2019-05-01T23:45:24.810Z,10.81
2019-05-01T23:47:55.331Z,11.07
2019-05-01T23:50:25.758Z,10.90
2019-05-01T23:52:56.539Z,10.63
2019-05-01T23:55:27.016Z,10.83
2019-05-01T23:57:57.494Z,10.94
